Mondorf-les-Bains, Luxembourg
Current Conditions -  °F | °C
As of 4:50 PM on Sunday 21 Dec 2014 (Local Time) from ELLX Reporting Station
Drizzle Drizzle  
Wind Chill: 34°   Ceiling: 1100
Heat Index: 41°   Visibility: 3mi
Dew Point: 39°   Wind: 13mph
Humidity: 93%   Direction: 230°SW
Pressure: 30.39"   Gusts: NA
Location:  49.51°N, 6.28°E
Report Text: ELLX 211550Z 23011KT 5000 -DZ SCT008 BKN011 05/04 Q1029 NOSIG
Loading
Personal Weather Stations






























Interactive Weather Map New forecast layout! Learn more

10-Day Weather Forecast

Advertisements
Track Severe Weather on mobile